Time;durP1;ratioP1;P1;durP2;ratioP2;P2;SDS_P1;SDS_P2;PMS_P1;PMS_P2;Temp;Humidity;BMP_temperature;BMP_pressure;BME280_temperature;BME280_humidity;BME280_pressure;Samples;Min_cycle;Max_cycle;Signal;HPM_P1;HPM_P2
2024/01/09 00:01:16;;;;;;;;;27.50;24.25;;;;;-143.90;100.00;79990.09;4846935;28;104036;-70
2024/01/09 00:03:44;;;;;;;;;45.50;38.50;;;;;-143.90;100.00;79983.88;4857556;28;102268;-70
2024/01/09 00:06:14;;;;;;;;;47.00;34.00;;;;;-143.90;100.00;79979.75;4855657;28;102059;-69
2024/01/09 00:08:41;;;;;;;;;30.50;27.25;;;;;-143.90;100.00;79983.88;4831632;28;103385;-70
2024/01/09 00:11:11;;;;;;;;;38.50;34.00;;;;;-143.90;100.00;79996.28;4838412;28;102101;-69
2024/01/09 00:13:38;;;;;;;;;32.00;27.00;;;;;-143.90;100.00;79977.66;4857686;28;101838;-70
2024/01/09 00:16:05;;;;;;;;;35.50;27.75;;;;;-143.90;100.00;79981.81;4860016;28;103088;-69
2024/01/09 00:18:32;;;;;;;;;28.50;25.50;;;;;-143.90;100.00;79981.81;4851424;28;103660;-70
2024/01/09 00:20:59;;;;;;;;;49.25;40.50;;;;;-143.90;100.00;79985.94;4855325;28;102028;-69
2024/01/09 00:23:25;;;;;;;;;39.00;27.75;;;;;-143.90;100.00;80002.50;4858450;28;101976;-70
2024/01/09 00:25:52;;;;;;;;;36.50;27.00;;;;;-143.90;100.00;80002.50;4836266;28;103199;-69
2024/01/09 00:28:22;;;;;;;;;37.25;30.25;;;;;-143.90;100.00;80004.56;4853243;28;102941;-68
2024/01/09 00:30:48;;;;;;;;;41.75;29.00;;;;;-143.90;100.00;80023.19;4843162;28;102038;-68
2024/01/09 00:33:15;;;;;;;;;36.50;24.25;;;;;-143.90;100.00;80023.19;4877977;28;102039;-69
2024/01/09 00:35:42;;;;;;;;;18.50;12.50;;;;;-143.90;100.00;80029.41;4878774;28;101942;-69
2024/01/09 00:38:10;;;;;;;;;33.75;27.00;;;;;-143.90;100.00;80023.19;4850507;28;102842;-69
2024/01/09 00:40:36;;;;;;;;;26.25;21.25;;;;;-143.90;100.00;80021.13;4869148;28;103856;-69
2024/01/09 00:43:03;;;;;;;;;32.00;27.50;;;;;-143.90;100.00;80029.41;4856503;28;103891;-69
2024/01/09 00:45:30;;;;;;;;;33.25;21.00;;;;;-143.90;100.00;80035.63;4853344;28;102005;-68
2024/01/09 00:47:56;;;;;;;;;30.00;25.25;;;;;-143.90;100.00;80025.28;4877842;28;104711;-69
2024/01/09 00:50:23;;;;;;;;;29.75;23.50;;;;;-143.90;100.00;80021.13;4876172;28;103289;-69
2024/01/09 00:52:50;;;;;;;;;19.75;13.75;;;;;-143.90;100.00;80006.66;4868790;28;103644;-69
2024/01/09 00:55:17;;;;;;;;;27.25;22.50;;;;;-143.90;100.00;80008.72;4879229;28;101881;-68
2024/01/09 00:57:44;;;;;;;;;41.50;31.00;;;;;-143.90;100.00;80014.94;4879956;28;105701;-68
2024/01/09 01:00:11;;;;;;;;;58.50;40.50;;;;;-143.90;100.00;80025.28;4877113;28;102255;-68
2024/01/09 01:02:37;;;;;;;;;39.25;30.50;;;;;-143.90;100.00;80021.13;4867737;28;102092;-69
2024/01/09 01:05:05;;;;;;;;;33.50;28.00;;;;;-143.90;100.00;80027.34;4876234;28;101919;-69
2024/01/09 01:07:31;;;;;;;;;53.75;39.75;;;;;-143.90;100.00;80031.47;4878922;28;104552;-69
2024/01/09 01:09:58;;;;;;;;;28.00;21.00;;;;;-143.90;100.00;80031.47;4880984;28;102074;-69
2024/01/09 01:12:26;;;;;;;;;45.25;31.75;;;;;-143.90;100.00;80037.69;4877320;28;101722;-69
2024/01/09 01:14:52;;;;;;;;;51.00;43.25;;;;;-143.90;100.00;80033.56;4876679;28;102255;-70
2024/01/09 01:17:19;;;;;;;;;25.50;22.50;;;;;-143.90;100.00;80035.63;4855951;28;104487;-69
2024/01/09 01:19:45;;;;;;;;;4.50;3.00;;;;;-143.90;100.00;80027.34;4876491;28;102555;-68
2024/01/09 01:22:12;;;;;;;;;4.00;2.00;;;;;-143.90;100.00;80019.06;4877261;28;101599;-69
2024/01/09 01:24:39;;;;;;;;;20.75;17.50;;;;;-143.90;100.00;80025.28;4872457;28;102188;-68
2024/01/09 01:27:06;;;;;;;;;30.75;26.00;;;;;-143.90;100.00;80045.97;4872815;28;104837;-69
2024/01/09 01:29:32;;;;;;;;;27.00;19.50;;;;;-143.90;100.00;80050.13;4875484;28;102372;-68
2024/01/09 01:31:59;;;;;;;;;26.00;17.50;;;;;-143.90;100.00;80048.03;4861570;28;102689;-70
2024/01/09 01:34:26;;;;;;;;;45.75;31.50;;;;;-143.90;100.00;80058.41;4862931;28;102710;-68
2024/01/09 01:36:52;;;;;;;;;31.00;24.75;;;;;-143.90;100.00;80058.41;4856579;28;109518;-69
2024/01/09 01:39:19;;;;;;;;;34.00;29.75;;;;;-143.90;100.00;80081.16;4858891;28;103286;-69
2024/01/09 01:41:46;;;;;;;;;59.75;48.50;;;;;-143.90;100.00;80124.63;4846867;28;103268;-68
2024/01/09 01:44:17;;;;;;;;;40.75;38.00;;;;;-143.90;100.00;80124.63;4860105;28;101936;-69
2024/01/09 01:46:45;;;;;;;;;40.00;34.00;;;;;-143.90;100.00;80112.22;4850892;28;103283;-70
2024/01/09 01:49:12;;;;;;;;;44.75;37.25;;;;;-143.90;100.00;80108.06;4843691;28;102305;-70
2024/01/09 01:51:41;;;;;;;;;47.75;37.25;;;;;-143.90;100.00;80103.94;4855985;28;101632;-70
2024/01/09 01:54:08;;;;;;;;;38.50;32.50;;;;;-143.90;100.00;80103.94;4860075;28;101988;-70
2024/01/09 01:56:35;;;;;;;;;44.25;33.00;;;;;-143.90;100.00;80128.78;4848333;28;104838;-71
2024/01/09 01:59:02;;;;;;;;;59.25;48.00;;;;;-143.90;100.00;80172.25;4854022;28;102015;-72
2024/01/09 02:01:29;;;;;;;;;27.50;12.75;;;;;-143.90;100.00;80186.72;4859546;28;104189;-69
2024/01/09 02:03:56;;;;;;;;;54.25;48.00;;;;;-143.90;100.00;80207.44;4845520;28;102518;-72
2024/01/09 02:06:23;;;;;;;;;59.00;48.75;;;;;-143.90;100.00;80221.91;4858817;28;103331;-70
2024/01/09 02:08:52;;;;;;;;;65.75;49.00;;;;;-143.90;100.00;80230.19;4852901;28;102185;-71
2024/01/09 02:11:19;;;;;;;;;61.75;49.00;;;;;-143.90;100.00;80238.47;4856506;28;103093;-69
2024/01/09 02:13:46;;;;;;;;;72.00;50.75;;;;;-143.90;100.00;80252.97;4844714;28;101866;-70
2024/01/09 02:16:13;;;;;;;;;71.25;48.50;;;;;-143.90;100.00;80263.31;4856933;28;103568;-69
2024/01/09 02:18:39;;;;;;;;;43.00;31.00;;;;;-143.90;100.00;80255.03;4851086;28;102543;-70
2024/01/09 02:21:06;;;;;;;;;64.25;47.50;;;;;-143.90;100.00;80252.97;4860713;28;103007;-70
2024/01/09 02:23:33;;;;;;;;;57.50;44.50;;;;;-143.90;100.00;80265.38;4857629;28;103557;-69
2024/01/09 02:26:00;;;;;;;;;48.75;39.50;;;;;-143.90;100.00;80250.91;4859903;28;103145;-69
2024/01/09 02:28:46;;;;;;;;;38.25;32.00;;;;;-143.90;100.00;80224.00;4834223;28;102181;-70
2024/01/09 02:31:13;;;;;;;;;38.00;32.00;;;;;-143.90;100.00;80228.13;4867982;28;101897;-71
2024/01/09 02:33:40;;;;;;;;;35.50;29.00;;;;;-143.90;100.00;80219.84;4861982;28;101677;-69
2024/01/09 02:36:07;;;;;;;;;39.25;30.50;;;;;-143.90;100.00;80228.13;4877382;28;103399;-70
2024/01/09 02:38:34;;;;;;;;;35.00;26.50;;;;;-143.90;100.00;80224.00;4869548;28;103416;-70
2024/01/09 02:41:01;;;;;;;;;55.50;44.00;;;;;-143.90;100.00;80244.69;4874626;28;101800;-71
2024/01/09 02:43:28;;;;;;;;;54.75;40.25;;;;;-143.90;100.00;80242.63;4858406;28;101995;-70
2024/01/09 02:45:54;;;;;;;;;61.75;47.50;;;;;-143.90;100.00;80246.75;4875334;28;107569;-70
2024/01/09 02:48:21;;;;;;;;;56.00;41.00;;;;;-143.90;100.00;80252.97;4878820;28;102337;-70
2024/01/09 02:50:48;;;;;;;;;59.25;41.00;;;;;-143.90;100.00;80257.13;4868074;28;104031;-70
2024/01/09 02:53:15;;;;;;;;;48.50;40.75;;;;;-143.90;100.00;80246.75;4877348;28;103164;-71
2024/01/09 02:55:42;;;;;;;;;53.75;44.75;;;;;-143.90;100.00;80236.41;4880080;28;104780;-70
2024/01/09 02:58:09;;;;;;;;;41.25;37.75;;;;;-143.90;100.00;80226.06;4873787;28;102926;-71
2024/01/09 03:00:35;;;;;;;;;48.50;33.75;;;;;-143.90;100.00;80217.78;4848523;28;102038;-70
2024/01/09 03:03:02;;;;;;;;;39.00;32.75;;;;;-143.90;100.00;80219.84;4877411;28;102014;-70
2024/01/09 03:05:29;;;;;;;;;39.25;30.75;;;;;-143.90;100.00;80224.00;4879084;28;103655;-69
2024/01/09 03:07:59;;;;;;;;;40.00;32.00;;;;;-143.90;100.00;80215.72;4877869;28;101795;-68
2024/01/09 03:10:26;;;;;;;;;33.75;27.00;;;;;-143.90;100.00;80205.34;4877314;28;102054;-70
2024/01/09 03:12:53;;;;;;;;;51.25;42.25;;;;;-143.90;100.00;80219.84;4872738;28;103325;-70
2024/01/09 03:15:19;;;;;;;;;23.00;13.50;;;;;-143.90;100.00;80224.00;4873524;28;104211;-70
2024/01/09 03:17:46;;;;;;;;;39.50;34.50;;;;;-143.90;100.00;80224.00;4876681;28;102027;-70
2024/01/09 03:20:13;;;;;;;;;38.00;33.50;;;;;-143.90;100.00;80215.72;4878382;28;102048;-70
2024/01/09 03:22:40;;;;;;;;;36.00;31.00;;;;;-143.90;100.00;80217.78;4863385;28;101871;-70
2024/01/09 03:25:07;;;;;;;;;45.50;30.75;;;;;-143.90;100.00;80217.78;4878390;28;103596;-70
2024/01/09 03:27:34;;;;;;;;;31.50;23.50;;;;;-143.90;100.00;80226.06;4870517;28;101822;-70
2024/01/09 03:30:00;;;;;;;;;35.50;30.00;;;;;-143.90;100.00;80219.84;4871816;28;102671;-70
2024/01/09 03:32:27;;;;;;;;;27.25;21.75;;;;;-143.90;100.00;80226.06;4854250;28;103407;-70
2024/01/09 03:34:54;;;;;;;;;50.75;32.50;;;;;-143.90;100.00;80240.56;4844421;28;104389;-70
2024/01/09 03:37:21;;;;;;;;;45.00;36.25;;;;;-143.90;100.00;80261.25;4857217;28;103077;-70
2024/01/09 03:39:47;;;;;;;;;39.25;27.00;;;;;-143.90;100.00;80269.53;4855207;28;102941;-72
2024/01/09 03:42:14;;;;;;;;;45.50;39.75;;;;;-143.90;100.00;80271.59;4858473;28;103459;-73
2024/01/09 03:44:41;;;;;;;;;21.50;14.75;;;;;-143.90;100.00;80284.03;4850736;28;103020;-71
2024/01/09 03:47:07;;;;;;;;;49.75;38.25;;;;;-143.90;100.00;80294.38;4859517;28;101995;-70
2024/01/09 03:49:34;;;;;;;;;41.00;30.75;;;;;-143.90;100.00;80294.38;4857461;28;101728;-71
2024/01/09 03:52:01;;;;;;;;;30.50;23.50;;;;;-143.90;100.00;80281.94;4862245;28;103690;-71
2024/01/09 03:54:27;;;;;;;;;45.25;36.50;;;;;-143.90;100.00;80319.22;4859375;28;103777;-70
2024/01/09 03:56:54;;;;;;;;;39.00;33.00;;;;;-143.90;100.00;80327.50;4852908;28;102590;-71
2024/01/09 03:59:21;;;;;;;;;39.50;32.75;;;;;-143.90;100.00;80310.94;4838967;28;102970;-71
2024/01/09 04:01:47;;;;;;;;;57.00;46.00;;;;;-143.90;100.00;80315.06;4837936;28;101817;-69
2024/01/09 04:04:14;;;;;;;;;40.75;31.50;;;;;-143.90;100.00;80313.00;4861674;28;102879;-71
2024/01/09 04:06:43;;;;;;;;;36.75;31.00;;;;;-143.90;100.00;80323.34;4851915;28;101911;-71
2024/01/09 04:09:11;;;;;;;;;38.50;35.50;;;;;-143.90;100.00;80325.41;4857854;28;102354;-70
2024/01/09 04:11:42;;;;;;;;;83.00;56.50;;;;;-143.90;100.00;80346.13;4860893;28;101757;-70
2024/01/09 04:14:09;;;;;;;;;57.25;44.25;;;;;-143.90;100.00;80368.88;4860794;28;103468;-70
2024/01/09 04:16:36;;;;;;;;;49.25;42.50;;;;;-143.90;100.00;80356.47;4855426;28;102141;-70
2024/01/09 04:19:03;;;;;;;;;76.50;56.75;;;;;-143.90;100.00;80352.34;4862815;28;101968;-71
2024/01/09 04:21:29;;;;;;;;;72.75;54.00;;;;;-143.90;100.00;80344.06;4865618;28;101929;-70
2024/01/09 04:23:58;;;;;;;;;50.00;40.00;;;;;-143.90;100.00;80339.91;4845278;28;109102;-70
2024/01/09 04:26:25;;;;;;;;;43.25;33.25;;;;;-143.90;100.00;80327.50;4859408;28;102700;-70
2024/01/09 04:28:51;;;;;;;;;44.25;34.25;;;;;-143.90;100.00;80319.22;4856393;28;102270;-69
2024/01/09 04:31:18;;;;;;;;;25.75;21.50;;;;;-143.90;100.00;80313.00;4876577;28;102677;-70
2024/01/09 04:33:45;;;;;;;;;35.50;28.50;;;;;-143.90;100.00;80298.50;4871689;28;102666;-70
2024/01/09 04:36:16;;;;;;;;;27.00;23.75;;;;;-143.90;100.00;80296.44;4879925;28;102139;-69
2024/01/09 04:38:46;;;;;;;;;34.50;17.25;;;;;-143.90;100.00;80302.66;4874680;28;101998;-70
2024/01/09 04:41:17;;;;;;;;;51.00;35.50;;;;;-143.90;100.00;80302.66;4878901;28;103101;-70
2024/01/09 04:43:45;;;;;;;;;28.00;26.00;;;;;-143.90;100.00;80310.94;4878671;28;103268;-69
2024/01/09 04:46:13;;;;;;;;;40.75;30.50;;;;;-143.90;100.00;80315.06;4880532;28;102872;-70
2024/01/09 04:48:39;;;;;;;;;13.00;5.00;;;;;-143.90;100.00;80319.22;4872731;28;101820;-70
2024/01/09 04:51:06;;;;;;;;;36.50;31.00;;;;;-143.90;100.00;80323.34;4880219;28;101926;-71
2024/01/09 04:53:33;;;;;;;;;44.50;33.75;;;;;-143.90;100.00;80344.06;4874620;28;103334;-70
2024/01/09 04:56:00;;;;;;;;;43.00;37.25;;;;;-143.90;100.00;80356.47;4881860;28;103092;-71
2024/01/09 04:58:26;;;;;;;;;49.75;38.50;;;;;-143.90;100.00;80350.25;4879022;28;103251;-71
2024/01/09 05:00:53;;;;;;;;;55.25;44.75;;;;;-143.90;100.00;80339.91;4873131;28;104662;-70
2024/01/09 05:03:20;;;;;;;;;48.00;39.00;;;;;-143.90;100.00;80339.91;4871369;28;103418;-71
2024/01/09 05:05:46;;;;;;;;;43.00;31.75;;;;;-143.90;100.00;80346.13;4878874;28;103465;-71
2024/01/09 05:08:13;;;;;;;;;42.00;33.25;;;;;-143.90;100.00;80344.06;4877948;28;101820;-69
2024/01/09 05:10:40;;;;;;;;;66.25;50.25;;;;;-143.90;100.00;80356.47;4873376;28;101806;-70
2024/01/09 05:13:07;;;;;;;;;58.00;40.00;;;;;-143.90;100.00;80356.47;4875354;28;103662;-71
2024/01/09 05:15:33;;;;;;;;;51.25;43.50;;;;;-143.90;100.00;80352.34;4884170;28;101991;-71
2024/01/09 05:18:01;;;;;;;;;49.75;39.50;;;;;-143.90;100.00;80354.41;4883273;28;102070;-71
2024/01/09 05:20:28;;;;;;;;;49.00;44.00;;;;;-143.90;100.00;80370.97;4877856;28;101925;-70
2024/01/09 05:22:55;;;;;;;;;52.75;38.50;;;;;-143.90;100.00;80364.75;4874621;28;103599;-71
2024/01/09 05:25:22;;;;;;;;;61.00;38.75;;;;;-143.90;100.00;80358.53;4876869;28;101835;-71
2024/01/09 05:27:48;;;;;;;;;50.50;43.25;;;;;-143.90;100.00;80354.41;4878725;28;103768;-70
2024/01/09 05:30:15;;;;;;;;;42.75;33.00;;;;;-143.90;100.00;80358.53;4877926;28;102250;-71
2024/01/09 05:32:42;;;;;;;;;28.75;27.50;;;;;-143.90;100.00;80360.63;4870414;28;103465;-72
2024/01/09 05:35:09;;;;;;;;;36.50;29.50;;;;;-143.90;100.00;80381.31;4876225;28;102280;-71
2024/01/09 05:37:36;;;;;;;;;42.75;33.25;;;;;-143.90;100.00;80399.94;4877473;28;101699;-71
2024/01/09 05:40:04;;;;;;;;;42.50;33.75;;;;;-143.90;100.00;80397.88;4878058;28;102531;-71
2024/01/09 05:42:30;;;;;;;;;55.00;40.25;;;;;-143.90;100.00;80402.00;4879208;28;104352;-70
2024/01/09 05:44:57;;;;;;;;;45.00;38.00;;;;;-143.90;100.00;80424.78;4875664;28;102399;-71
2024/01/09 05:47:24;;;;;;;;;49.00;37.25;;;;;-143.90;100.00;80431.00;4877490;28;101992;-69
2024/01/09 05:49:51;;;;;;;;;38.25;29.50;;;;;-143.90;100.00;80439.28;4880412;28;105638;-70
2024/01/09 05:52:17;;;;;;;;;61.00;44.75;;;;;-143.90;100.00;80439.28;4872482;28;103546;-72
2024/01/09 05:54:45;;;;;;;;;54.00;45.00;;;;;-143.90;100.00;80439.28;4863940;28;102524;-70
2024/01/09 05:57:13;;;;;;;;;83.00;57.00;;;;;-143.90;100.00;80443.41;4861494;28;102429;-70
2024/01/09 05:59:39;;;;;;;;;76.25;57.00;;;;;-143.90;100.00;80445.50;4875804;28;102681;-70
2024/01/09 06:02:07;;;;;;;;;71.50;53.50;;;;;-143.90;100.00;80431.00;4875305;28;104061;-70
2024/01/09 06:04:34;;;;;;;;;69.25;49.50;;;;;-143.90;100.00;80435.13;4873799;28;102590;-69
2024/01/09 06:07:01;;;;;;;;;63.00;45.00;;;;;-143.90;100.00;80428.94;4873590;28;101948;-69
2024/01/09 06:09:28;;;;;;;;;73.00;55.50;;;;;-143.90;100.00;80424.78;4858978;28;101878;-69
2024/01/09 06:11:54;;;;;;;;;59.50;44.25;;;;;-143.90;100.00;80426.84;4861593;28;103383;-68
2024/01/09 06:14:21;;;;;;;;;56.00;45.00;;;;;-143.90;100.00;80435.13;4875126;28;108399;-69
2024/01/09 06:16:48;;;;;;;;;61.25;47.50;;;;;-143.90;100.00;80431.00;4873860;28;102391;-69
2024/01/09 06:19:14;;;;;;;;;58.50;46.75;;;;;-143.90;100.00;80426.84;4882534;28;103298;-68
2024/01/09 06:21:41;;;;;;;;;56.50;46.75;;;;;-143.90;100.00;80435.13;4878900;28;103002;-69
2024/01/09 06:24:08;;;;;;;;;63.00;43.50;;;;;-143.90;100.00;80435.13;4880289;28;102002;-69
2024/01/09 06:26:35;;;;;;;;;43.25;36.50;;;;;-143.90;100.00;80435.13;4874394;28;102044;-69
2024/01/09 06:29:05;;;;;;;;;62.75;48.00;;;;;-143.90;100.00;80414.44;4883921;28;102831;-68
2024/01/09 06:31:32;;;;;;;;;40.75;29.75;;;;;-143.90;100.00;80402.00;4860705;28;104874;-70
2024/01/09 06:33:59;;;;;;;;;65.00;50.25;;;;;-143.90;100.00;80397.88;4861726;28;101883;-69
2024/01/09 06:36:26;;;;;;;;;43.00;36.75;;;;;-143.90;100.00;80404.09;4859848;28;102091;-70
2024/01/09 06:38:56;;;;;;;;;37.75;29.50;;;;;-143.90;100.00;80402.00;4858420;28;101673;-68
2024/01/09 06:41:23;;;;;;;;;52.00;41.25;;;;;-143.90;100.00;80399.94;4835788;28;102279;-69
2024/01/09 06:43:50;;;;;;;;;47.75;45.50;;;;;-143.90;100.00;80391.66;4864142;28;102397;-69
2024/01/09 06:46:17;;;;;;;;;44.50;39.00;;;;;-143.90;100.00;80402.00;4861544;28;105662;-68
2024/01/09 06:48:44;;;;;;;;;52.25;36.50;;;;;-143.90;100.00;80395.81;4854682;28;101686;-70
2024/01/09 06:51:14;;;;;;;;;56.00;38.00;;;;;-143.90;100.00;80389.59;4861269;28;103403;-69
2024/01/09 06:53:40;;;;;;;;;49.75;43.75;;;;;-143.90;100.00;80393.72;4853803;28;103143;-69
2024/01/09 06:56:09;;;;;;;;;33.25;25.75;;;;;-143.90;100.00;80393.72;4862440;28;101922;-69
2024/01/09 06:58:36;;;;;;;;;40.75;28.75;;;;;-143.90;100.00;80418.56;4854766;28;101856;-69
2024/01/09 07:01:03;;;;;;;;;36.75;31.00;;;;;-143.90;100.00;80399.94;4861790;28;103498;-69
2024/01/09 07:03:30;;;;;;;;;44.25;33.50;;;;;-143.90;100.00;80412.38;4863913;28;101931;-69
2024/01/09 07:05:57;;;;;;;;;55.25;41.00;;;;;-143.90;100.00;80404.09;4862468;28;101665;-69
2024/01/09 07:08:24;;;;;;;;;34.50;30.50;;;;;-143.90;100.00;80410.28;4867146;28;101652;-68
2024/01/09 07:10:50;;;;;;;;;40.75;32.75;;;;;-143.90;100.00;80410.28;4855687;28;102813;-69
2024/01/09 07:13:17;;;;;;;;;41.25;36.75;;;;;-143.90;100.00;80402.00;4861556;28;102022;-69
2024/01/09 07:15:44;;;;;;;;;51.50;43.75;;;;;-143.90;100.00;80410.28;4861041;28;101660;-69
2024/01/09 07:18:11;;;;;;;;;56.25;40.25;;;;;-143.90;100.00;80420.66;4861274;28;103462;-69
2024/01/09 07:20:38;;;;;;;;;63.50;45.25;;;;;-143.90;100.00;80418.56;4855513;28;103610;-69
2024/01/09 07:23:04;;;;;;;;;48.50;35.50;;;;;-143.90;100.00;80416.50;4862148;28;102122;-69
2024/01/09 07:25:44;;;;;;;;;49.75;37.75;;;;;-143.90;100.00;80402.00;4860060;28;101867;-69
2024/01/09 07:28:11;;;;;;;;;61.75;47.50;;;;;-143.90;100.00;80397.88;4861736;28;101605;-69
2024/01/09 07:30:38;;;;;;;;;49.00;36.00;;;;;-143.90;100.00;80391.66;4852374;28;104029;-69
2024/01/09 07:33:05;;;;;;;;;50.50;41.50;;;;;-143.90;100.00;80383.38;4839571;28;104570;-68
2024/01/09 07:35:34;;;;;;;;;47.75;37.00;;;;;-143.90;100.00;80381.31;4864043;28;101946;-68
2024/01/09 07:38:01;;;;;;;;;45.50;33.50;;;;;-143.90;100.00;80368.88;4863852;28;101801;-70
2024/01/09 07:40:27;;;;;;;;;50.25;38.50;;;;;-143.90;100.00;80358.53;4860333;28;107331;-69
2024/01/09 07:42:58;;;;;;;;;36.50;31.50;;;;;-143.90;100.00;80344.06;4833316;28;101857;-68
2024/01/09 07:45:29;;;;;;;;;53.75;36.25;;;;;-143.90;100.00;80335.78;4858754;28;103643;-69
2024/01/09 07:47:57;;;;;;;;;42.00;38.75;;;;;-143.90;100.00;80331.63;4869514;28;101845;-69
2024/01/09 07:50:23;;;;;;;;;60.75;40.50;;;;;-143.90;100.00;80323.34;4869969;28;103244;-69
2024/01/09 07:52:50;;;;;;;;;48.25;39.50;;;;;-143.90;100.00;80310.94;4850883;28;102693;-69
2024/01/09 07:55:17;;;;;;;;;53.00;41.75;;;;;-143.90;100.00;80298.50;4855649;28;107645;-70
2024/01/09 07:57:44;;;;;;;;;48.50;38.50;;;;;-143.90;100.00;80277.81;4871470;28;101539;-70
2024/01/09 08:00:11;;;;;;;;;46.00;34.50;;;;;-143.90;100.00;80265.38;4860152;28;103339;-69
2024/01/09 08:02:38;;;;;;;;;36.00;32.25;;;;;-143.90;100.00;80248.81;4851045;28;102227;-68
2024/01/09 08:05:05;;;;;;;;;43.00;36.50;;;;;-143.90;100.00;80238.47;4867015;28;101903;-69
2024/01/09 08:07:32;;;;;;;;;20.75;15.25;;;;;-143.90;100.00;80226.06;4871877;28;102127;-69
2024/01/09 08:09:59;;;;;;;;;51.50;40.00;;;;;-143.90;100.00;80232.28;4866297;28;108145;-71
2024/01/09 08:12:25;;;;;;;;;43.25;34.50;;;;;-143.90;100.00;80215.72;4870275;28;101836;-69
2024/01/09 08:14:53;;;;;;;;;55.75;41.00;;;;;-143.90;100.00;80201.22;4856110;28;103367;-69
2024/01/09 08:17:21;;;;;;;;;52.25;38.00;;;;;-143.90;100.00;80180.53;4871277;28;102022;-69
2024/01/09 08:19:47;;;;;;;;;55.50;39.00;;;;;-143.90;100.00;80176.38;4866606;28;104030;-70
2024/01/09 08:22:14;;;;;;;;;42.25;34.75;;;;;-143.90;100.00;80157.75;4870805;28;101896;-70
2024/01/09 08:24:41;;;;;;;;;18.75;13.50;;;;;-143.90;100.00;80134.97;4855501;28;101999;-69
2024/01/09 08:27:08;;;;;;;;;29.25;26.00;;;;;-143.90;100.00;80126.69;4869865;28;101925;-71
2024/01/09 08:29:34;;;;;;;;;36.25;30.50;;;;;-143.90;100.00;80095.66;4869257;28;103563;-70
2024/01/09 08:32:02;;;;;;;;;43.25;30.75;;;;;-143.90;100.00;80091.50;4873380;28;102019;-69
2024/01/09 08:34:29;;;;;;;;;24.75;18.75;;;;;-143.90;100.00;80064.59;4885628;28;108247;-69
2024/01/09 08:36:55;;;;;;;;;34.00;25.75;;;;;-143.90;100.00;80070.81;4884119;28;101746;-69
2024/01/09 08:39:22;;;;;;;;;42.00;30.00;;;;;-143.90;100.00;80062.53;4881909;28;103394;-69
2024/01/09 08:41:49;;;;;;;;;32.25;21.25;;;;;-143.90;100.00;80062.53;4889206;28;102157;-70
2024/01/09 08:44:17;;;;;;;;;36.00;28.00;;;;;-143.90;100.00;80043.91;4866582;28;103149;-69
2024/01/09 08:46:44;;;;;;;;;36.50;33.50;;;;;-143.90;100.00;80027.34;4882526;28;102131;-69
2024/01/09 08:49:12;;;;;;;;;47.00;39.50;;;;;-143.90;100.00;80021.13;4885610;28;103198;-69
2024/01/09 08:51:39;;;;;;;;;43.75;32.25;;;;;-143.90;100.00;80000.44;4885097;28;101627;-69
2024/01/09 08:54:07;;;;;;;;;32.50;28.25;;;;;-143.90;100.00;79979.75;4886680;28;103161;-71
2024/01/09 08:56:34;;;;;;;;;35.75;31.25;;;;;-143.90;100.00;79973.53;4881214;28;103590;-72
2024/01/09 08:59:01;;;;;;;;;38.75;29.75;;;;;-143.90;100.00;79950.75;4887102;28;103642;-70
2024/01/09 09:01:29;;;;;;;;;35.50;30.75;;;;;-143.90;100.00;79950.75;4864179;28;103415;-68
2024/01/09 09:03:56;;;;;;;;;34.00;25.00;;;;;-143.90;100.00;79930.06;4873261;28;101981;-69
2024/01/09 09:06:23;;;;;;;;;41.50;28.00;;;;;-143.90;100.00;79901.09;4882037;28;103172;-69
2024/01/09 09:08:49;;;;;;;;;43.75;32.00;;;;;-143.90;100.00;79884.53;4869452;28;103767;-68
2024/01/09 09:11:16;;;;;;;;;43.50;31.75;;;;;-143.90;100.00;79861.75;4883200;28;102055;-70
2024/01/09 09:13:44;;;;;;;;;34.00;31.00;;;;;-143.90;100.00;79828.63;4883399;28;102071;-69
2024/01/09 09:16:11;;;;;;;;;29.00;25.50;;;;;-143.90;100.00;79824.50;4869028;28;102091;-68
2024/01/09 09:18:37;;;;;;;;;40.50;26.50;;;;;-143.90;100.00;79810.00;4875402;28;104478;-70
2024/01/09 09:21:05;;;;;;;;;42.50;34.50;;;;;-143.90;100.00;79795.53;4886629;28;102182;-68
2024/01/09 09:23:33;;;;;;;;;34.75;27.00;;;;;-143.90;100.00;79781.03;4871259;28;101985;-68
2024/01/09 09:26:00;;;;;;;;;41.75;38.25;;;;;-143.90;100.00;79772.75;4870984;28;102027;-70
2024/01/09 09:28:27;;;;;;;;;47.25;35.75;;;;;-143.90;100.00;79745.84;4873868;28;105316;-69
2024/01/09 09:31:06;;;;;;;;;59.25;44.75;;;;;-143.90;100.00;79712.72;4875084;28;102458;-69
2024/01/09 09:33:33;;;;;;;;;41.25;31.50;;;;;-143.90;100.00;79689.97;4884255;28;101937;-69
2024/01/09 09:36:05;;;;;;;;;42.50;37.50;;;;;-143.90;100.00;79656.84;4886795;28;101645;-69
2024/01/09 09:38:33;;;;;;;;;35.50;24.00;;;;;-143.90;100.00;79638.22;4880888;28;109208;-68
2024/01/09 09:41:06;;;;;;;;;53.00;43.00;;;;;-143.90;100.00;79617.53;4880466;28;102073;-69
2024/01/09 09:43:35;;;;;;;;;43.00;36.50;;;;;-143.90;100.00;79586.47;4879363;28;101878;-70
2024/01/09 09:46:04;;;;;;;;;13.50;12.50;;;;;-143.90;100.00;79557.50;4881766;28;101959;-69
2024/01/09 09:48:35;;;;;;;;;31.00;23.50;;;;;-143.90;100.00;79518.19;4870634;28;107463;-69
2024/01/09 09:51:04;;;;;;;;;41.50;31.00;;;;;-143.90;100.00;79495.41;4885191;28;103746;-68
2024/01/09 09:53:31;;;;;;;;;38.25;29.00;;;;;-143.90;100.00;79478.84;4881955;28;102378;-69
2024/01/09 09:55:58;;;;;;;;;38.25;29.00;;;;;-143.90;100.00;79468.50;4886221;28;101805;-69
2024/01/09 09:58:25;;;;;;;;;32.00;29.00;;;;;-143.90;100.00;79451.94;4879439;28;103482;-70
2024/01/09 10:00:56;;;;;;;;;34.50;20.00;;;;;-143.90;100.00;79441.59;4878306;28;101992;-69
2024/01/09 10:03:31;;;;;;;;;46.75;36.25;;;;;-143.90;100.00;79412.63;4883082;28;101805;-69
2024/01/09 10:06:04;;;;;;;;;27.00;22.00;;;;;-143.90;100.00;79404.34;4882912;28;101961;-69
2024/01/09 10:08:33;;;;;;;;;36.75;25.00;;;;;-143.90;100.00;79383.66;4878692;28;108480;-69
2024/01/09 10:11:01;;;;;;;;;17.25;9.00;;;;;-143.90;100.00;79379.50;4884531;28;102979;-69
2024/01/09 10:13:28;;;;;;;;;26.00;23.00;;;;;-143.90;100.00;79377.44;4873813;28;101909;-69
2024/01/09 10:15:56;;;;;;;;;39.50;29.75;;;;;-143.90;100.00;79362.97;4878790;28;102088;-69
2024/01/09 10:18:23;;;;;;;;;47.00;38.00;;;;;-143.90;100.00;79367.09;4880868;28;103413;-69
2024/01/09 10:20:50;;;;;;;;;40.50;33.75;;;;;-143.90;100.00;79346.41;4872042;28;101697;-70
2024/01/09 10:23:39;;;;;;;;;31.75;24.75;;;;;-143.90;100.00;79325.72;4878047;28;101602;-68
2024/01/09 10:26:11;;;;;;;;;37.50;30.00;;;;;-143.90;100.00;79292.59;4865772;28;101822;-70
2024/01/09 10:28:44;;;;;;;;;30.75;24.75;;;;;-143.90;100.00;79273.97;4873912;28;103292;-69
2024/01/09 10:31:11;;;;;;;;;33.25;29.75;;;;;-143.90;100.00;79267.75;4864483;28;101873;-71
2024/01/09 10:33:41;;;;;;;;;27.25;22.50;;;;;-143.90;100.00;79280.19;4865585;28;101903;-71
2024/01/09 10:36:09;;;;;;;;;31.25;24.25;;;;;-143.90;100.00;79276.03;4864749;28;102842;-69
2024/01/09 10:38:35;;;;;;;;;36.50;27.00;;;;;-143.90;100.00;79242.94;4856352;28;102828;-69
2024/01/09 10:41:16;;;;;;;;;36.75;27.00;;;;;-143.90;100.00;79228.44;4863745;28;101771;-69
2024/01/09 10:43:44;;;;;;;;;36.75;30.00;;;;;-143.90;100.00;79218.09;4842707;28;102072;-69
2024/01/09 10:46:11;;;;;;;;;25.50;21.00;;;;;-143.90;100.00;79187.06;4857109;28;102172;-70
2024/01/09 10:48:41;;;;;;;;;28.75;20.50;;;;;-143.90;100.00;79158.06;4853598;28;103768;-70